Willow Wood, Ohio
Current Conditions -  °F | °C
As of 3:51 AM on Wednesday 22 Oct 2014 (Local Time) from KHTS Reporting Station
Overcast Overcast  
Wind Chill: 43°   Ceiling: 1800
Heat Index: 45°   Visibility: 10mi
Dew Point: 40°   Wind: 5mph
Humidity: 82%   Direction: 320°NW
Pressure: 30.13"   Gusts: NA
Location:  38.56°N, 82.47°W
Report Text: KHTS 220751Z 32004KT 10SM OVC018 07/04 A3013 RMK AO2 SLP203 T00720044
Loading
Personal Weather Stations






























Interactive Weather Map
Tropical Storm Tracking
New forecast layout! Learn more

10-Day Weather Forecast

Advertisements
Track Severe Weather on mobile